Time;durP1;ratioP1;P1;durP2;ratioP2;P2;SDS_P1;SDS_P2;PMS_P1;PMS_P2;Temp;Humidity;BMP_temperature;BMP_pressure;BME280_temperature;BME280_humidity;BME280_pressure;Samples;Min_cycle;Max_cycle;Signal;HPM_P1;HPM_P2
2021/03/08 00:00:56;;;;;;;26.75;17.50;;;;;;;;;;5115612;28;20043;-86
2021/03/08 00:03:23;;;;;;;23.75;15.82;;;;;;;;;;5097734;28;20016;-89
2021/03/08 00:05:49;;;;;;;21.42;16.15;;;;;;;;;;5090742;28;20461;-87
2021/03/08 00:08:19;;;;;;;25.58;16.50;;;;;;;;;;5081866;28;20028;-87
2021/03/08 00:10:45;;;;;;;29.48;18.50;;;;;;;;;;5099431;28;20039;-86
2021/03/08 00:13:12;;;;;;;24.73;16.17;;;;;;;;;;5098681;28;20024;-88
2021/03/08 00:15:38;;;;;;;26.33;17.33;;;;;;;;;;5098394;28;20031;-86
2021/03/08 00:18:04;;;;;;;28.40;17.33;;;;;;;;;;5099608;28;20042;-87
2021/03/08 00:20:30;;;;;;;24.33;16.08;;;;;;;;;;5101703;28;20027;-87
2021/03/08 00:22:56;;;;;;;27.35;17.35;;;;;;;;;;5083641;28;20027;-85
2021/03/08 00:25:24;;;;;;;23.98;17.23;;;;;;;;;;5084044;28;20028;-85
2021/03/08 00:27:50;;;;;;;26.50;17.70;;;;;;;;;;5099136;28;20024;-88
2021/03/08 00:30:17;;;;;;;25.88;17.48;;;;;;;;;;5081421;28;20028;-89
2021/03/08 00:32:44;;;;;;;27.55;18.08;;;;;;;;;;5098639;28;20047;-87
2021/03/08 00:35:10;;;;;;;27.50;17.33;;;;;;;;;;5081093;28;20066;-88
2021/03/08 00:37:37;;;;;;;24.88;17.23;;;;;;;;;;5098558;28;20028;-88
2021/03/08 00:40:08;;;;;;;29.10;17.77;;;;;;;;;;5098716;28;20028;-90
2021/03/08 00:42:35;;;;;;;24.40;16.13;;;;;;;;;;5063792;28;20085;-84
2021/03/08 00:45:01;;;;;;;35.00;18.90;;;;;;;;;;5080679;28;20054;-90
2021/03/08 00:47:27;;;;;;;24.85;16.88;;;;;;;;;;5080871;28;20020;-85
2021/03/08 00:49:53;;;;;;;27.50;16.45;;;;;;;;;;5080881;28;20065;-88
2021/03/08 00:52:19;;;;;;;25.23;16.25;;;;;;;;;;5083789;28;20039;-87
2021/03/08 00:54:45;;;;;;;28.35;17.40;;;;;;;;;;5098804;28;20040;-89
2021/03/08 00:57:12;;;;;;;24.60;16.75;;;;;;;;;;5099803;28;20028;-86
2021/03/08 00:59:38;;;;;;;25.85;17.90;;;;;;;;;;5098498;28;20035;-87
2021/03/08 01:02:05;;;;;;;26.33;17.85;;;;;;;;;;5098226;28;20031;-88
2021/03/08 01:04:31;;;;;;;25.77;16.70;;;;;;;;;;5098743;28;20024;-89
2021/03/08 01:06:57;;;;;;;26.17;17.80;;;;;;;;;;5098828;28;20431;-88
2021/03/08 01:09:23;;;;;;;27.98;18.25;;;;;;;;;;5099455;28;20043;-87
2021/03/08 01:11:55;;;;;;;28.85;17.73;;;;;;;;;;5098419;28;20032;-87
2021/03/08 01:14:21;;;;;;;26.13;17.58;;;;;;;;;;5097960;28;20039;-90
2021/03/08 01:16:47;;;;;;;29.20;18.58;;;;;;;;;;5097805;28;20142;-86
2021/03/08 01:19:13;;;;;;;26.85;17.55;;;;;;;;;;5097521;28;20073;-89
2021/03/08 01:21:39;;;;;;;29.38;18.02;;;;;;;;;;5097731;28;20351;-90
2021/03/08 01:24:06;;;;;;;26.02;17.98;;;;;;;;;;5097902;28;20028;-88
2021/03/08 01:26:32;;;;;;;27.75;17.95;;;;;;;;;;5096927;28;20034;-88
2021/03/08 01:28:58;;;;;;;30.38;19.85;;;;;;;;;;5086661;28;20024;-87
2021/03/08 01:31:24;;;;;;;30.20;20.15;;;;;;;;;;5079903;28;20067;-89
2021/03/08 01:33:51;;;;;;;29.25;18.88;;;;;;;;;;5098626;28;20032;-87
2021/03/08 01:36:18;;;;;;;31.58;19.42;;;;;;;;;;5093389;28;20046;-88
2021/03/08 01:38:44;;;;;;;27.80;19.05;;;;;;;;;;5098489;28;20032;-87
2021/03/08 01:41:10;;;;;;;29.50;20.13;;;;;;;;;;5097870;28;20028;-92
2021/03/08 01:43:36;;;;;;;28.27;19.88;;;;;;;;;;5099342;28;20059;-89
2021/03/08 01:46:03;;;;;;;36.22;21.25;;;;;;;;;;5098056;28;20024;-87
2021/03/08 01:48:29;;;;;;;29.92;19.60;;;;;;;;;;5098595;28;20024;-91
2021/03/08 01:50:55;;;;;;;31.13;19.85;;;;;;;;;;5098068;28;20027;-90
2021/03/08 01:53:22;;;;;;;30.63;19.02;;;;;;;;;;5098881;28;20043;-88
2021/03/08 01:55:48;;;;;;;33.15;20.50;;;;;;;;;;5097779;28;20031;-91
2021/03/08 01:58:15;;;;;;;34.38;20.85;;;;;;;;;;5087601;28;20032;-89
2021/03/08 02:00:41;;;;;;;28.40;19.67;;;;;;;;;;5095553;28;20085;-90
2021/03/08 02:03:07;;;;;;;37.30;21.40;;;;;;;;;;5097097;28;20028;-88
2021/03/08 02:05:37;;;;;;;30.52;20.75;;;;;;;;;;5097974;28;20077;-91
2021/03/08 02:08:05;;;;;;;30.77;19.98;;;;;;;;;;5092162;28;20057;-86
2021/03/08 02:10:32;;;;;;;29.70;19.80;;;;;;;;;;5078779;28;20052;-91
2021/03/08 02:13:08;;;;;;;33.55;20.02;;;;;;;;;;5078441;28;20028;-91
2021/03/08 02:15:53;;;;;;;30.98;21.23;;;;;;;;;;5076137;28;20035;-90
2021/03/08 02:18:26;;;;;;;34.40;22.73;;;;;;;;;;5095913;28;20032;-86
2021/03/08 02:20:56;;;;;;;34.33;21.58;;;;;;;;;;5094166;28;20032;-87
2021/03/08 02:23:22;;;;;;;37.42;21.85;;;;;;;;;;5078579;28;20450;-88
2021/03/08 02:26:06;;;;;;;31.73;21.80;;;;;;;;;;5097548;28;20061;-88
2021/03/08 02:29:02;;;;;;;33.13;20.60;;;;;;;;;;5077243;28;20028;-88
2021/03/08 02:31:28;;;;;;;33.55;21.75;;;;;;;;;;5077208;28;20024;-90
2021/03/08 02:33:58;;;;;;;39.13;22.73;;;;;;;;;;5079086;28;20055;-88
2021/03/08 02:36:27;;;;;;;32.38;21.77;;;;;;;;;;5079006;28;20036;-88
2021/03/08 02:38:58;;;;;;;33.63;21.15;;;;;;;;;;5076145;28;20050;-86
2021/03/08 02:41:26;;;;;;;33.53;22.45;;;;;;;;;;5096400;28;20039;-90
2021/03/08 02:44:00;;;;;;;36.15;21.60;;;;;;;;;;5073604;28;20077;-91
2021/03/08 02:46:31;;;;;;;36.70;24.15;;;;;;;;;;5095745;28;20035;-90
2021/03/08 02:48:59;;;;;;;34.30;20.90;;;;;;;;;;5093939;28;20074;-89
2021/03/08 02:51:27;;;;;;;31.33;22.48;;;;;;;;;;5078293;28;20047;-88
2021/03/08 02:53:55;;;;;;;35.90;21.17;;;;;;;;;;5094276;28;20036;-91
2021/03/08 02:56:23;;;;;;;34.60;21.73;;;;;;;;;;5079106;28;20028;-88
2021/03/08 02:58:50;;;;;;;35.80;22.73;;;;;;;;;;5097052;28;20044;-89
2021/03/08 03:01:19;;;;;;;35.75;23.05;;;;;;;;;;5097187;28;20028;-89
2021/03/08 03:03:47;;;;;;;37.50;22.92;;;;;;;;;;5085995;28;20049;-88
2021/03/08 03:06:14;;;;;;;39.15;22.90;;;;;;;;;;5097069;28;20059;-87
2021/03/08 03:08:41;;;;;;;32.90;21.05;;;;;;;;;;5096748;28;20086;-88
2021/03/08 03:11:08;;;;;;;41.78;23.70;;;;;;;;;;5096638;28;20332;-90
2021/03/08 03:13:36;;;;;;;36.90;22.10;;;;;;;;;;5096305;28;20036;-89
2021/03/08 03:16:02;;;;;;;36.42;23.35;;;;;;;;;;5097206;28;20124;-90
2021/03/08 03:18:30;;;;;;;35.58;22.65;;;;;;;;;;5096243;28;20028;-87
2021/03/08 03:20:57;;;;;;;38.38;23.98;;;;;;;;;;5096000;28;20100;-91
2021/03/08 03:23:24;;;;;;;31.88;21.23;;;;;;;;;;5097425;28;20024;-87
2021/03/08 03:25:50;;;;;;;37.60;22.75;;;;;;;;;;5096395;28;20103;-88
2021/03/08 03:28:17;;;;;;;41.28;23.13;;;;;;;;;;5096813;28;20024;-91
2021/03/08 03:30:43;;;;;;;36.28;23.77;;;;;;;;;;5096539;28;20137;-90
2021/03/08 03:33:11;;;;;;;38.08;22.52;;;;;;;;;;5077430;28;20024;-87
2021/03/08 03:35:37;;;;;;;40.50;21.52;;;;;;;;;;5095192;28;20024;-91
2021/03/08 03:38:03;;;;;;;37.67;23.02;;;;;;;;;;5077420;28;20081;-91
2021/03/08 03:40:29;;;;;;;35.28;22.77;;;;;;;;;;5076969;28;20028;-88
2021/03/08 03:42:55;;;;;;;38.97;24.63;;;;;;;;;;5094880;28;20323;-92
2021/03/08 03:45:23;;;;;;;38.42;23.25;;;;;;;;;;5095444;28;20020;-89
2021/03/08 03:47:50;;;;;;;41.97;25.58;;;;;;;;;;5077260;28;20335;-89
2021/03/08 03:50:18;;;;;;;38.33;23.25;;;;;;;;;;5077782;28;20028;-88
2021/03/08 03:52:44;;;;;;;38.38;24.23;;;;;;;;;;5078163;28;20027;-89
2021/03/08 03:55:12;;;;;;;34.60;23.55;;;;;;;;;;5080757;28;20032;-91
2021/03/08 03:57:50;;;;;;;36.90;22.02;;;;;;;;;;5081083;28;20093;-89
2021/03/08 04:00:19;;;;;;;37.42;22.65;;;;;;;;;;5082019;28;20461;-90
2021/03/08 04:02:50;;;;;;;38.85;23.73;;;;;;;;;;5081761;28;20036;-89
2021/03/08 04:05:18;;;;;;;42.60;22.20;;;;;;;;;;5081219;28;20032;-87
2021/03/08 04:07:45;;;;;;;37.63;24.27;;;;;;;;;;5081007;28;20028;-88
2021/03/08 04:10:11;;;;;;;35.40;22.83;;;;;;;;;;5081427;28;20267;-88
2021/03/08 04:12:39;;;;;;;37.72;23.73;;;;;;;;;;5080640;28;20441;-87
2021/03/08 04:15:06;;;;;;;38.88;24.23;;;;;;;;;;5080847;28;20344;-89
2021/03/08 04:17:42;;;;;;;42.28;25.23;;;;;;;;;;5080852;28;20028;-87
2021/03/08 04:20:11;;;;;;;35.60;22.30;;;;;;;;;;5074395;28;20073;-88
2021/03/08 04:22:38;;;;;;;37.22;23.05;;;;;;;;;;5080678;28;20020;-89
2021/03/08 04:25:05;;;;;;;37.47;23.15;;;;;;;;;;5080498;28;20472;-90
2021/03/08 04:27:33;;;;;;;33.83;21.50;;;;;;;;;;5081093;28;20031;-90
2021/03/08 04:30:00;;;;;;;48.25;22.55;;;;;;;;;;5080697;28;20071;-88
2021/03/08 04:32:27;;;;;;;42.63;22.65;;;;;;;;;;5080658;28;20111;-88
2021/03/08 04:34:54;;;;;;;34.60;23.00;;;;;;;;;;5098126;28;20035;-89
2021/03/08 04:37:20;;;;;;;40.83;24.73;;;;;;;;;;5078248;28;20106;-87
2021/03/08 04:39:47;;;;;;;37.95;23.92;;;;;;;;;;5081179;28;20042;-90
2021/03/08 04:42:15;;;;;;;37.90;22.85;;;;;;;;;;5080633;28;20032;-86
2021/03/08 04:44:43;;;;;;;35.60;22.50;;;;;;;;;;5095091;28;20024;-87
2021/03/08 04:47:10;;;;;;;35.50;22.08;;;;;;;;;;5097243;28;20028;-90
2021/03/08 04:49:36;;;;;;;45.95;23.60;;;;;;;;;;5092772;28;20028;-88
2021/03/08 04:52:03;;;;;;;40.95;22.13;;;;;;;;;;5097543;28;20027;-87
2021/03/08 04:54:29;;;;;;;38.40;24.05;;;;;;;;;;5098111;28;20036;-87
2021/03/08 04:56:56;;;;;;;35.92;22.50;;;;;;;;;;5080224;28;20035;-90
2021/03/08 04:59:25;;;;;;;39.92;24.38;;;;;;;;;;5080483;28;20451;-89
2021/03/08 05:01:53;;;;;;;39.75;24.08;;;;;;;;;;5080324;28;20424;-86
2021/03/08 05:04:21;;;;;;;37.13;23.87;;;;;;;;;;5080319;28;20034;-89
2021/03/08 05:06:47;;;;;;;38.42;23.55;;;;;;;;;;5097261;28;20279;-86
2021/03/08 05:09:14;;;;;;;41.72;22.88;;;;;;;;;;5078962;28;20026;-91
2021/03/08 05:11:41;;;;;;;40.10;22.88;;;;;;;;;;5065410;28;20070;-86
2021/03/08 05:14:11;;;;;;;37.20;22.17;;;;;;;;;;5077502;28;20126;-87
2021/03/08 05:16:39;;;;;;;38.47;21.35;;;;;;;;;;5074857;28;20515;-88
2021/03/08 05:19:06;;;;;;;34.60;23.15;;;;;;;;;;5079686;28;20032;-87
2021/03/08 05:21:34;;;;;;;35.50;22.30;;;;;;;;;;5081025;28;20038;-90
2021/03/08 05:24:00;;;;;;;41.40;22.92;;;;;;;;;;5093143;28;20024;-86
2021/03/08 05:26:27;;;;;;;42.65;24.25;;;;;;;;;;5074286;28;20032;-87
2021/03/08 05:28:55;;;;;;;43.35;24.38;;;;;;;;;;5089630;28;20420;-89
2021/03/08 05:31:21;;;;;;;39.08;25.05;;;;;;;;;;5094982;28;20026;-88
2021/03/08 05:33:48;;;;;;;37.83;22.73;;;;;;;;;;5078274;28;20036;-87
2021/03/08 05:36:15;;;;;;;37.50;23.27;;;;;;;;;;5078938;28;20064;-88
2021/03/08 05:38:41;;;;;;;43.85;25.77;;;;;;;;;;5078286;28;20039;-87
2021/03/08 05:41:25;;;;;;;41.55;24.52;;;;;;;;;;5076987;28;20058;-84
2021/03/08 05:43:53;;;;;;;38.10;24.23;;;;;;;;;;5074134;28;20040;-85
2021/03/08 05:46:27;;;;;;;40.03;24.23;;;;;;;;;;5078235;28;20110;-87
2021/03/08 05:49:12;;;;;;;40.80;24.67;;;;;;;;;;5076249;28;20113;-87
2021/03/08 05:51:49;;;;;;;42.03;24.08;;;;;;;;;;5077684;28;20031;-88
2021/03/08 05:54:34;;;;;;;36.53;23.30;;;;;;;;;;5075118;28;20040;-86
2021/03/08 05:57:00;;;;;;;45.97;27.30;;;;;;;;;;5091420;28;20024;-88
2021/03/08 05:59:26;;;;;;;39.55;23.95;;;;;;;;;;5094626;28;20028;-88
2021/03/08 06:02:07;;;;;;;38.88;26.75;;;;;;;;;;5094342;28;20053;-86
2021/03/08 06:04:52;;;;;;;39.13;24.40;;;;;;;;;;5087687;28;20052;-86
2021/03/08 06:07:39;;;;;;;40.42;24.77;;;;;;;;;;5074582;28;20398;-87
2021/03/08 06:10:06;;;;;;;43.03;26.73;;;;;;;;;;5069571;28;20173;-87
2021/03/08 06:12:35;;;;;;;38.05;24.83;;;;;;;;;;5069866;28;20320;-87
2021/03/08 06:15:07;;;;;;;42.22;25.52;;;;;;;;;;5093102;28;20024;-88
2021/03/08 06:17:34;;;;;;;41.35;24.65;;;;;;;;;;5074506;28;20036;-89
2021/03/08 06:20:00;;;;;;;43.83;25.50;;;;;;;;;;5075355;28;20052;-89
2021/03/08 06:22:27;;;;;;;42.60;26.70;;;;;;;;;;5068279;28;20032;-89
2021/03/08 06:24:55;;;;;;;45.70;28.67;;;;;;;;;;5097300;28;20020;-89
2021/03/08 06:27:22;;;;;;;39.67;25.43;;;;;;;;;;5066992;28;20037;-88
2021/03/08 06:29:48;;;;;;;46.95;26.60;;;;;;;;;;5079386;28;20036;-90
2021/03/08 06:32:14;;;;;;;45.13;27.48;;;;;;;;;;5082243;28;20193;-89
2021/03/08 06:34:41;;;;;;;42.67;25.45;;;;;;;;;;5081633;28;20024;-87
2021/03/08 06:37:11;;;;;;;41.90;26.08;;;;;;;;;;5075006;28;20028;-88
2021/03/08 06:39:38;;;;;;;41.40;25.83;;;;;;;;;;5078917;28;20028;-90
2021/03/08 06:42:05;;;;;;;41.30;25.10;;;;;;;;;;5077228;28;20036;-86
2021/03/08 06:44:31;;;;;;;40.65;26.73;;;;;;;;;;5069569;28;20069;-89
2021/03/08 06:46:58;;;;;;;42.00;27.15;;;;;;;;;;5064888;28;20490;-87
2021/03/08 06:49:24;;;;;;;46.42;27.23;;;;;;;;;;5067728;28;20063;-89
2021/03/08 06:52:04;;;;;;;47.03;27.38;;;;;;;;;;5087366;28;20518;-87
2021/03/08 06:54:31;;;;;;;43.92;26.70;;;;;;;;;;5092858;28;20352;-89
2021/03/08 06:56:57;;;;;;;42.15;26.45;;;;;;;;;;5095527;28;20223;-89
2021/03/08 06:59:23;;;;;;;42.22;25.67;;;;;;;;;;5088993;28;20031;-89
2021/03/08 07:01:51;;;;;;;47.85;28.15;;;;;;;;;;5080460;28;20028;-87
2021/03/08 07:04:19;;;;;;;45.40;28.27;;;;;;;;;;5076720;28;20043;-89
2021/03/08 07:07:01;;;;;;;47.67;28.73;;;;;;;;;;5096040;28;20170;-89
2021/03/08 07:09:28;;;;;;;41.60;26.48;;;;;;;;;;5071649;28;20335;-90
2021/03/08 07:12:07;;;;;;;42.00;28.05;;;;;;;;;;5088398;28;20045;-89
2021/03/08 07:14:34;;;;;;;46.72;28.13;;;;;;;;;;5073596;28;20044;-90
2021/03/08 07:17:00;;;;;;;41.30;27.50;;;;;;;;;;5086591;28;20059;-88
2021/03/08 07:19:26;;;;;;;45.25;27.63;;;;;;;;;;5096050;28;20061;-87
2021/03/08 07:21:53;;;;;;;45.33;27.75;;;;;;;;;;5083014;28;20036;-89
2021/03/08 07:24:20;;;;;;;45.83;26.85;;;;;;;;;;5080823;28;20020;-87
2021/03/08 07:26:53;;;;;;;46.60;27.38;;;;;;;;;;5094461;28;20066;-87
2021/03/08 07:29:20;;;;;;;50.47;30.23;;;;;;;;;;5073558;28;20127;-89
2021/03/08 07:31:50;;;;;;;49.75;29.70;;;;;;;;;;5076178;28;20047;-90
2021/03/08 07:34:16;;;;;;;50.03;28.75;;;;;;;;;;5079893;28;20047;-88
2021/03/08 07:36:44;;;;;;;53.72;30.08;;;;;;;;;;5075634;28;20017;-86
2021/03/08 07:39:11;;;;;;;52.65;31.00;;;;;;;;;;5079057;28;20540;-88
2021/03/08 07:41:50;;;;;;;56.55;32.90;;;;;;;;;;5076389;28;20032;-88
2021/03/08 07:44:16;;;;;;;51.45;31.80;;;;;;;;;;5083609;28;20540;-90
2021/03/08 07:46:42;;;;;;;50.63;31.58;;;;;;;;;;5093216;28;20028;-88
2021/03/08 07:49:08;;;;;;;59.83;35.08;;;;;;;;;;5077998;28;20024;-88
2021/03/08 07:51:35;;;;;;;51.70;32.40;;;;;;;;;;5072882;28;20028;-88
2021/03/08 07:54:09;;;;;;;54.72;33.05;;;;;;;;;;5075570;28;20097;-86
2021/03/08 07:56:35;;;;;;;59.75;37.13;;;;;;;;;;5078070;28;20024;-87
2021/03/08 07:59:02;;;;;;;62.28;35.15;;;;;;;;;;5086917;28;20073;-89
2021/03/08 08:01:28;;;;;;;54.40;32.85;;;;;;;;;;5095059;28;20028;-90
2021/03/08 08:03:54;;;;;;;58.80;33.78;;;;;;;;;;5079928;28;20047;-86
2021/03/08 08:06:21;;;;;;;57.63;33.15;;;;;;;;;;5081282;28;20020;-86
2021/03/08 08:08:55;;;;;;;55.40;33.05;;;;;;;;;;5082912;28;20352;-88
2021/03/08 08:11:22;;;;;;;58.17;34.65;;;;;;;;;;5081172;28;20063;-87
2021/03/08 08:13:50;;;;;;;60.63;35.33;;;;;;;;;;5068262;28;20059;-87
2021/03/08 08:16:18;;;;;;;68.72;35.20;;;;;;;;;;5072234;28;20028;-88
2021/03/08 08:18:46;;;;;;;59.45;33.45;;;;;;;;;;5075480;28;20093;-86
2021/03/08 08:21:16;;;;;;;53.03;32.05;;;;;;;;;;5094640;28;20077;-87
2021/03/08 08:23:44;;;;;;;59.05;33.65;;;;;;;;;;5091806;28;20547;-86
2021/03/08 08:26:12;;;;;;;64.97;35.85;;;;;;;;;;5087136;28;20472;-87
2021/03/08 08:28:40;;;;;;;58.33;34.70;;;;;;;;;;5086360;28;20423;-87
2021/03/08 08:31:06;;;;;;;63.90;34.50;;;;;;;;;;5085747;28;20024;-90
2021/03/08 08:33:33;;;;;;;55.65;34.65;;;;;;;;;;5073573;28;20039;-89
2021/03/08 08:36:09;;;;;;;56.20;34.47;;;;;;;;;;5085057;28;20043;-86
2021/03/08 08:38:35;;;;;;;57.67;34.17;;;;;;;;;;5074335;28;20407;-86
2021/03/08 08:41:18;;;;;;;67.10;35.20;;;;;;;;;;5081548;28;20325;-86
2021/03/08 08:43:45;;;;;;;61.17;34.67;;;;;;;;;;5080735;28;20039;-88
2021/03/08 08:46:24;;;;;;;67.80;34.30;;;;;;;;;;5093938;28;20019;-89
2021/03/08 08:49:03;;;;;;;66.30;35.08;;;;;;;;;;5092257;28;20055;-85
2021/03/08 08:51:48;;;;;;;58.75;34.63;;;;;;;;;;5077479;28;20050;-90
2021/03/08 08:54:34;;;;;;;67.60;35.17;;;;;;;;;;5078579;28;20198;-87
2021/03/08 08:57:00;;;;;;;53.47;31.30;;;;;;;;;;5100114;28;20031;-88
2021/03/08 08:59:27;;;;;;;67.18;34.53;;;;;;;;;;5083609;28;20111;-86
2021/03/08 09:04:44;;;;;;;70.22;35.58;;;;;;;;;;5095337;28;20071;-90
2021/03/08 09:07:23;;;;;;;64.32;33.50;;;;;;;;;;5081649;28;20038;-90
2021/03/08 09:09:49;;;;;;;;;;;;;;;;;;5092390;28;20034;-88
2021/03/08 09:12:31;;;;;;;57.97;31.77;;;;;;;;;;5097805;28;19916;-89
2021/03/08 09:14:58;;;;;;;67.40;34.53;;;;;;;;;;5098998;28;20057;-88
2021/03/08 09:17:31;;;;;;;65.68;33.47;;;;;;;;;;5097700;28;20201;-87
2021/03/08 09:19:58;;;;;;;64.93;33.97;;;;;;;;;;5089677;28;20093;-90
2021/03/08 09:22:24;;;;;;;62.40;32.70;;;;;;;;;;5080856;28;20031;-87
2021/03/08 09:24:51;;;;;;;89.15;52.85;;;;;;;;;;5097285;28;20031;-88
2021/03/08 09:27:31;;;;;;;74.35;36.55;;;;;;;;;;5072766;28;20036;-88
2021/03/08 09:30:12;;;;;;;78.93;39.22;;;;;;;;;;5096491;28;20024;-88
2021/03/08 09:32:49;;;;;;;78.65;41.33;;;;;;;;;;5075772;28;20432;-88
2021/03/08 09:35:16;;;;;;;70.25;40.35;;;;;;;;;;5095111;28;20055;-86
2021/03/08 09:37:44;;;;;;;71.53;37.75;;;;;;;;;;5079463;28;20031;-88
2021/03/08 09:40:11;;;;;;;66.05;36.15;;;;;;;;;;5087783;28;20039;-89
2021/03/08 09:42:39;;;;;;;74.88;37.17;;;;;;;;;;5070551;28;20059;-88
2021/03/08 09:45:15;;;;;;;70.95;36.78;;;;;;;;;;5081176;28;20058;-88
2021/03/08 09:47:41;;;;;;;75.55;38.08;;;;;;;;;;5086730;28;20159;-87
2021/03/08 09:50:09;;;;;;;72.88;38.10;;;;;;;;;;5098327;28;20016;-88
2021/03/08 09:52:36;;;;;;;66.32;34.88;;;;;;;;;;5098868;28;20020;-88
2021/03/08 09:55:23;;;;;;;62.33;34.88;;;;;;;;;;5089741;28;20063;-88
2021/03/08 09:57:49;;;;;;;66.40;36.00;;;;;;;;;;5088192;28;20422;-89
2021/03/08 10:00:23;;;;;;;64.85;35.00;;;;;;;;;;5100727;28;20028;-88
2021/03/08 10:03:02;;;;;;;63.95;34.20;;;;;;;;;;5097542;28;20031;-87
2021/03/08 10:05:40;;;;;;;61.75;35.17;;;;;;;;;;5083605;28;20020;-88
2021/03/08 10:08:07;;;;;;;63.70;34.43;;;;;;;;;;5090247;28;20446;-87
2021/03/08 10:10:52;;;;;;;64.68;35.95;;;;;;;;;;5097896;28;20108;-88
2021/03/08 10:13:19;;;;;;;59.25;32.03;;;;;;;;;;5073261;28;20032;-89
2021/03/08 10:15:49;;;;;;;57.50;35.03;;;;;;;;;;5081102;28;20040;-88
2021/03/08 10:18:17;;;;;;;59.90;32.47;;;;;;;;;;5081167;28;20036;-90
2021/03/08 10:20:47;;;;;;;68.13;34.08;;;;;;;;;;5079073;28;20028;-88
2021/03/08 10:23:14;;;;;;;68.93;35.53;;;;;;;;;;5098064;28;20074;-88
2021/03/08 10:25:40;;;;;;;57.35;33.63;;;;;;;;;;5085589;28;20027;-88
2021/03/08 10:28:07;;;;;;;65.50;34.55;;;;;;;;;;5098605;28;20324;-88
2021/03/08 10:30:34;;;;;;;60.03;33.40;;;;;;;;;;5088601;28;20037;-88
2021/03/08 10:33:02;;;;;;;60.83;33.67;;;;;;;;;;5100198;28;20048;-88
2021/03/08 10:35:28;;;;;;;54.67;31.42;;;;;;;;;;5080258;28;20339;-88
2021/03/08 10:37:54;;;;;;;57.60;33.90;;;;;;;;;;5109756;28;20036;-90
2021/03/08 10:40:22;;;;;;;59.63;30.50;;;;;;;;;;5097808;28;20035;-88
2021/03/08 10:42:48;;;;;;;52.75;29.58;;;;;;;;;;5078745;28;20027;-89
2021/03/08 10:45:17;;;;;;;51.30;28.85;;;;;;;;;;5074395;28;20020;-88
2021/03/08 10:47:44;;;;;;;56.92;31.85;;;;;;;;;;5085048;28;20124;-89
2021/03/08 10:50:10;;;;;;;44.90;28.10;;;;;;;;;;5106888;28;20022;-87
2021/03/08 10:52:36;;;;;;;51.45;28.20;;;;;;;;;;5087182;28;20106;-90
2021/03/08 10:55:03;;;;;;;47.53;28.70;;;;;;;;;;5097317;28;20036;-89
2021/03/08 10:57:29;;;;;;;50.95;29.83;;;;;;;;;;5097443;28;20031;-89
2021/03/08 10:59:56;;;;;;;48.95;28.80;;;;;;;;;;5086386;28;20024;-90
2021/03/08 11:02:22;;;;;;;46.40;27.73;;;;;;;;;;5082956;28;20058;-88
2021/03/08 11:04:49;;;;;;;46.22;29.27;;;;;;;;;;5090837;28;20020;-89
2021/03/08 11:07:16;;;;;;;49.13;26.75;;;;;;;;;;5074484;28;20039;-87
2021/03/08 11:09:46;;;;;;;42.17;26.95;;;;;;;;;;5089767;28;20024;-88
2021/03/08 11:12:17;;;;;;;46.75;27.88;;;;;;;;;;5077868;28;20428;-88
2021/03/08 11:15:01;;;;;;;49.58;26.23;;;;;;;;;;5091604;28;20024;-88
2021/03/08 11:17:30;;;;;;;47.50;27.75;;;;;;;;;;5066744;28;20338;-90
2021/03/08 11:20:07;;;;;;;44.55;28.02;;;;;;;;;;5089721;28;20028;-88
2021/03/08 11:22:48;;;;;;;46.67;29.10;;;;;;;;;;5072860;28;20043;-89
2021/03/08 11:25:24;;;;;;;45.35;28.10;;;;;;;;;;5077670;28;20024;-90
2021/03/08 11:27:50;;;;;;;46.33;28.23;;;;;;;;;;5082725;28;20082;-89
2021/03/08 11:30:17;;;;;;;49.25;28.60;;;;;;;;;;5073254;28;20063;-88
2021/03/08 11:32:43;;;;;;;43.22;27.08;;;;;;;;;;5069820;28;20029;-87
2021/03/08 11:35:29;;;;;;;41.45;27.02;;;;;;;;;;5072883;28;20062;-89
2021/03/08 11:37:57;;;;;;;48.40;28.00;;;;;;;;;;5093533;28;20043;-88
2021/03/08 11:40:24;;;;;;;45.42;27.95;;;;;;;;;;5079071;28;20077;-88
2021/03/08 11:42:50;;;;;;;47.53;27.00;;;;;;;;;;5077794;28;20091;-90
2021/03/08 11:45:17;;;;;;;43.90;28.13;;;;;;;;;;5076747;28;20219;-89
2021/03/08 11:47:43;;;;;;;43.72;26.65;;;;;;;;;;5079231;28;20035;-90
2021/03/08 11:50:10;;;;;;;46.95;28.92;;;;;;;;;;5098904;28;20024;-89
2021/03/08 11:52:36;;;;;;;49.97;29.38;;;;;;;;;;5079862;28;20130;-87
2021/03/08 11:55:02;;;;;;;44.47;27.35;;;;;;;;;;5078902;28;20036;-89
2021/03/08 11:57:28;;;;;;;44.10;26.75;;;;;;;;;;5077494;28;20028;-89
2021/03/08 11:59:54;;;;;;;46.67;28.90;;;;;;;;;;5093931;28;20032;-88
2021/03/08 12:02:21;;;;;;;43.90;27.08;;;;;;;;;;5080088;28;20035;-89
2021/03/08 12:04:47;;;;;;;47.42;27.63;;;;;;;;;;5085768;28;20111;-87
2021/03/08 12:07:13;;;;;;;44.30;28.40;;;;;;;;;;5084149;28;20115;-87
2021/03/08 12:09:42;;;;;;;47.15;27.33;;;;;;;;;;5088478;28;20046;-90
2021/03/08 12:12:08;;;;;;;38.72;24.90;;;;;;;;;;5091770;28;20013;-88
2021/03/08 12:14:34;;;;;;;48.78;26.92;;;;;;;;;;5097010;28;20529;-87
2021/03/08 12:17:01;;;;;;;40.60;25.50;;;;;;;;;;5117994;27;20012;-89
2021/03/08 12:19:27;;;;;;;46.58;26.40;;;;;;;;;;5098200;28;20052;-89
2021/03/08 12:21:53;;;;;;;42.42;25.63;;;;;;;;;;5100416;28;20070;-88
2021/03/08 12:24:20;;;;;;;43.28;26.25;;;;;;;;;;5099664;27;20048;-90
2021/03/08 12:26:48;;;;;;;45.13;27.52;;;;;;;;;;5103372;28;20236;-91
2021/03/08 12:29:14;;;;;;;56.78;31.33;;;;;;;;;;5116828;28;20091;-89
2021/03/08 12:31:40;;;;;;;52.30;32.95;;;;;;;;;;5101965;28;20068;-90
2021/03/08 12:34:07;;;;;;;58.58;36.63;;;;;;;;;;5092821;28;20260;-89
2021/03/08 12:36:33;;;;;;;60.53;35.22;;;;;;;;;;5110151;28;20028;-88
2021/03/08 12:38:59;;;;;;;67.30;38.90;;;;;;;;;;5096348;28;20032;-88
2021/03/08 12:41:25;;;;;;;62.45;37.40;;;;;;;;;;5084023;28;20042;-87
2021/03/08 12:43:51;;;;;;;63.70;37.75;;;;;;;;;;5101694;28;20035;-86
2021/03/08 12:46:19;;;;;;;64.95;35.92;;;;;;;;;;5083748;28;20032;-87
2021/03/08 12:48:45;;;;;;;60.90;36.75;;;;;;;;;;5083873;28;20062;-89
2021/03/08 12:51:17;;;;;;;57.97;34.67;;;;;;;;;;5099006;28;20095;-87
2021/03/08 12:53:43;;;;;;;66.82;38.58;;;;;;;;;;5083247;28;20028;-87
2021/03/08 12:56:09;;;;;;;64.60;35.53;;;;;;;;;;5085813;28;20374;-88
2021/03/08 12:58:35;;;;;;;55.97;35.15;;;;;;;;;;5085937;28;20035;-88
2021/03/08 13:01:01;;;;;;;57.20;33.40;;;;;;;;;;5097567;28;20036;-87
2021/03/08 13:03:27;;;;;;;52.72;30.55;;;;;;;;;;5091016;28;20038;-86
2021/03/08 13:05:53;;;;;;;57.95;32.88;;;;;;;;;;5106467;28;20025;-88
2021/03/08 13:08:20;;;;;;;56.03;32.92;;;;;;;;;;5099671;28;20034;-87
2021/03/08 13:10:55;;;;;;;57.53;32.67;;;;;;;;;;5084068;28;20027;-87
2021/03/08 13:13:22;;;;;;;53.20;33.05;;;;;;;;;;5085341;28;20031;-87
2021/03/08 13:15:49;;;;;;;57.88;35.42;;;;;;;;;;5081567;28;20031;-89
2021/03/08 13:18:15;;;;;;;58.75;34.67;;;;;;;;;;5097237;28;20028;-88
2021/03/08 13:20:41;;;;;;;58.78;31.67;;;;;;;;;;5083908;28;20024;-88
2021/03/08 13:23:08;;;;;;;55.67;30.20;;;;;;;;;;5074178;28;20019;-88
2021/03/08 13:25:40;;;;;;;54.85;31.48;;;;;;;;;;5084458;28;20324;-89
2021/03/08 13:28:19;;;;;;;46.00;28.58;;;;;;;;;;5084284;28;20032;-88
2021/03/08 13:30:48;;;;;;;53.03;29.88;;;;;;;;;;5080373;28;20032;-89
2021/03/08 13:33:17;;;;;;;47.15;28.35;;;;;;;;;;5095254;28;20028;-88
2021/03/08 13:35:43;;;;;;;45.85;28.70;;;;;;;;;;5096242;28;20028;-88
2021/03/08 13:38:09;;;;;;;45.20;29.05;;;;;;;;;;5090915;28;20030;-88
2021/03/08 13:40:41;;;;;;;49.08;29.92;;;;;;;;;;5084097;28;20024;-88
2021/03/08 13:43:12;;;;;;;46.35;28.73;;;;;;;;;;5081590;28;20032;-90
2021/03/08 13:45:38;;;;;;;46.58;26.23;;;;;;;;;;5084425;28;20035;-87
2021/03/08 13:48:12;;;;;;;45.95;29.38;;;;;;;;;;5087353;28;20032;-89
2021/03/08 13:50:41;;;;;;;42.58;25.50;;;;;;;;;;5079447;28;20056;-88
2021/03/08 13:53:07;;;;;;;42.92;27.55;;;;;;;;;;5097574;28;20419;-89
2021/03/08 13:55:37;;;;;;;44.53;26.13;;;;;;;;;;5097534;28;20047;-86
2021/03/08 13:58:09;;;;;;;40.25;24.92;;;;;;;;;;5079000;28;20460;-87
2021/03/08 14:00:38;;;;;;;43.35;26.20;;;;;;;;;;5076922;28;20032;-87
2021/03/08 14:03:05;;;;;;;40.78;25.08;;;;;;;;;;5085388;28;20028;-87
2021/03/08 14:05:51;;;;;;;41.67;26.33;;;;;;;;;;5075580;28;20046;-89
2021/03/08 14:08:17;;;;;;;44.00;26.33;;;;;;;;;;5074889;28;20443;-89
2021/03/08 14:10:46;;;;;;;39.10;24.83;;;;;;;;;;5088472;28;20024;-88
2021/03/08 14:13:20;;;;;;;42.42;24.80;;;;;;;;;;5106427;28;20024;-88
2021/03/08 14:15:47;;;;;;;38.10;24.95;;;;;;;;;;5075248;28;20076;-90
2021/03/08 14:18:18;;;;;;;38.38;24.92;;;;;;;;;;5102058;28;20068;-89
2021/03/08 14:21:06;;;;;;;40.70;25.67;;;;;;;;;;5081964;28;20024;-91
2021/03/08 14:23:32;;;;;;;39.70;25.35;;;;;;;;;;5087011;28;20038;-89
2021/03/08 14:25:58;;;;;;;39.90;25.35;;;;;;;;;;5101092;28;20123;-87
2021/03/08 14:28:25;;;;;;;38.40;26.38;;;;;;;;;;5098519;28;20037;-88
2021/03/08 14:30:51;;;;;;;41.65;25.27;;;;;;;;;;5085232;28;20043;-89